sensor_id;sensor_type;location;lat;lon;timestamp;P1;durP1;ratioP1;P2;durP2;ratioP2
4389;SDS011;2209;48.982;8.406;2023-06-26T00:02:18;7.23;;;6.53;;
4389;SDS011;2209;48.982;8.406;2023-06-26T00:04:41;7.53;;;6.83;;
4389;SDS011;2209;48.982;8.406;2023-06-26T00:07:04;6.70;;;6.00;;
4389;SDS011;2209;48.982;8.406;2023-06-26T00:09:26;6.43;;;5.80;;
4389;SDS011;2209;48.982;8.406;2023-06-26T00:11:49;9.17;;;6.97;;
4389;SDS011;2209;48.982;8.406;2023-06-26T00:14:13;6.93;;;6.33;;
4389;SDS011;2209;48.982;8.406;2023-06-26T00:16:35;7.37;;;6.20;;
4389;SDS011;2209;48.982;8.406;2023-06-26T00:18:57;9.17;;;6.47;;
4389;SDS011;2209;48.982;8.406;2023-06-26T00:21:20;6.03;;;5.50;;
4389;SDS011;2209;48.982;8.406;2023-06-26T00:23:42;6.60;;;6.00;;
4389;SDS011;2209;48.982;8.406;2023-06-26T00:26:04;7.80;;;7.03;;
4389;SDS011;2209;48.982;8.406;2023-06-26T00:28:26;8.00;;;7.10;;
4389;SDS011;2209;48.982;8.406;2023-06-26T00:30:49;7.40;;;6.70;;
4389;SDS011;2209;48.982;8.406;2023-06-26T00:33:11;6.97;;;6.27;;
4389;SDS011;2209;48.982;8.406;2023-06-26T00:35:33;6.73;;;6.13;;
4389;SDS011;2209;48.982;8.406;2023-06-26T00:37:56;7.20;;;6.50;;
4389;SDS011;2209;48.982;8.406;2023-06-26T00:40:18;7.80;;;7.10;;
4389;SDS011;2209;48.982;8.406;2023-06-26T00:42:40;7.43;;;6.73;;
4389;SDS011;2209;48.982;8.406;2023-06-26T00:45:02;7.83;;;7.10;;
4389;SDS011;2209;48.982;8.406;2023-06-26T00:47:26;8.37;;;6.87;;
4389;SDS011;2209;48.982;8.406;2023-06-26T00:49:49;7.10;;;6.47;;
4389;SDS011;2209;48.982;8.406;2023-06-26T00:52:11;6.23;;;5.63;;
4389;SDS011;2209;48.982;8.406;2023-06-26T00:54:33;7.40;;;6.70;;
4389;SDS011;2209;48.982;8.406;2023-06-26T00:56:55;9.67;;;6.53;;
4389;SDS011;2209;48.982;8.406;2023-06-26T00:59:17;9.23;;;6.90;;
4389;SDS011;2209;48.982;8.406;2023-06-26T01:01:39;7.90;;;7.20;;
4389;SDS011;2209;48.982;8.406;2023-06-26T01:04:03;8.33;;;7.13;;
4389;SDS011;2209;48.982;8.406;2023-06-26T01:06:26;7.50;;;6.90;;
4389;SDS011;2209;48.982;8.406;2023-06-26T01:08:51;9.30;;;6.80;;
4389;SDS011;2209;48.982;8.406;2023-06-26T01:11:14;8.10;;;7.30;;
4389;SDS011;2209;48.982;8.406;2023-06-26T01:13:36;8.73;;;7.27;;
4389;SDS011;2209;48.982;8.406;2023-06-26T01:15:59;8.93;;;7.67;;
4389;SDS011;2209;48.982;8.406;2023-06-26T01:21:42;8.37;;;7.57;;
4389;SDS011;2209;48.982;8.406;2023-06-26T01:24:07;8.00;;;7.20;;
4389;SDS011;2209;48.982;8.406;2023-06-26T01:26:42;7.20;;;6.53;;
4389;SDS011;2209;48.982;8.406;2023-06-26T01:29:06;7.03;;;6.40;;
4389;SDS011;2209;48.982;8.406;2023-06-26T01:31:31;7.10;;;6.50;;
4389;SDS011;2209;48.982;8.406;2023-06-26T01:33:56;8.50;;;6.40;;
4389;SDS011;2209;48.982;8.406;2023-06-26T01:36:20;7.17;;;6.47;;
4389;SDS011;2209;48.982;8.406;2023-06-26T01:38:43;7.63;;;6.90;;
4389;SDS011;2209;48.982;8.406;2023-06-26T01:41:05;15.00;;;7.00;;
4389;SDS011;2209;48.982;8.406;2023-06-26T01:43:31;7.90;;;6.30;;
4389;SDS011;2209;48.982;8.406;2023-06-26T01:46:03;7.90;;;6.97;;
4389;SDS011;2209;48.982;8.406;2023-06-26T01:48:30;8.13;;;7.17;;
4389;SDS011;2209;48.982;8.406;2023-06-26T01:50:55;7.30;;;6.60;;
4389;SDS011;2209;48.982;8.406;2023-06-26T01:53:21;7.70;;;6.97;;
4389;SDS011;2209;48.982;8.406;2023-06-26T01:55:46;8.30;;;7.60;;
4389;SDS011;2209;48.982;8.406;2023-06-26T01:58:12;8.33;;;7.30;;
4389;SDS011;2209;48.982;8.406;2023-06-26T02:00:38;15.20;;;7.70;;
4389;SDS011;2209;48.982;8.406;2023-06-26T02:03:01;7.80;;;7.00;;
4389;SDS011;2209;48.982;8.406;2023-06-26T02:05:23;6.63;;;6.00;;
4389;SDS011;2209;48.982;8.406;2023-06-26T02:07:46;8.27;;;6.30;;
4389;SDS011;2209;48.982;8.406;2023-06-26T02:10:08;15.40;;;7.10;;
4389;SDS011;2209;48.982;8.406;2023-06-26T02:12:31;8.77;;;7.03;;
4389;SDS011;2209;48.982;8.406;2023-06-26T02:14:53;6.97;;;6.37;;
4389;SDS011;2209;48.982;8.406;2023-06-26T02:17:16;7.13;;;6.43;;
4389;SDS011;2209;48.982;8.406;2023-06-26T02:19:38;8.53;;;7.73;;
4389;SDS011;2209;48.982;8.406;2023-06-26T02:22:07;8.07;;;7.27;;
4389;SDS011;2209;48.982;8.406;2023-06-26T02:24:29;9.33;;;7.37;;
4389;SDS011;2209;48.982;8.406;2023-06-26T02:26:52;7.47;;;6.77;;
4389;SDS011;2209;48.982;8.406;2023-06-26T02:29:15;7.00;;;6.33;;
4389;SDS011;2209;48.982;8.406;2023-06-26T02:31:37;7.20;;;6.03;;
4389;SDS011;2209;48.982;8.406;2023-06-26T02:34:00;6.57;;;5.97;;
4389;SDS011;2209;48.982;8.406;2023-06-26T02:36:22;9.00;;;6.30;;
4389;SDS011;2209;48.982;8.406;2023-06-26T02:38:44;7.70;;;6.90;;
4389;SDS011;2209;48.982;8.406;2023-06-26T02:41:06;6.53;;;5.90;;
4389;SDS011;2209;48.982;8.406;2023-06-26T02:43:28;7.20;;;6.20;;
4389;SDS011;2209;48.982;8.406;2023-06-26T02:45:50;12.30;;;7.03;;
4389;SDS011;2209;48.982;8.406;2023-06-26T02:48:12;9.63;;;6.70;;
4389;SDS011;2209;48.982;8.406;2023-06-26T02:50:36;7.63;;;7.00;;
4389;SDS011;2209;48.982;8.406;2023-06-26T02:52:58;8.33;;;7.07;;
4389;SDS011;2209;48.982;8.406;2023-06-26T02:55:20;7.10;;;6.50;;
4389;SDS011;2209;48.982;8.406;2023-06-26T02:57:42;7.33;;;6.70;;
4389;SDS011;2209;48.982;8.406;2023-06-26T03:00:04;8.13;;;6.97;;
4389;SDS011;2209;48.982;8.406;2023-06-26T03:02:28;9.27;;;6.77;;
4389;SDS011;2209;48.982;8.406;2023-06-26T03:04:50;7.33;;;6.60;;
4389;SDS011;2209;48.982;8.406;2023-06-26T03:07:14;8.30;;;7.07;;
4389;SDS011;2209;48.982;8.406;2023-06-26T03:09:36;9.23;;;7.57;;
4389;SDS011;2209;48.982;8.406;2023-06-26T03:11:58;7.70;;;7.00;;
4389;SDS011;2209;48.982;8.406;2023-06-26T03:14:20;6.60;;;5.97;;
4389;SDS011;2209;48.982;8.406;2023-06-26T03:16:43;7.30;;;6.60;;
4389;SDS011;2209;48.982;8.406;2023-06-26T03:19:05;7.33;;;6.63;;
4389;SDS011;2209;48.982;8.406;2023-06-26T03:21:27;7.50;;;5.93;;
4389;SDS011;2209;48.982;8.406;2023-06-26T03:23:50;8.23;;;7.00;;
4389;SDS011;2209;48.982;8.406;2023-06-26T03:26:12;7.30;;;6.60;;
4389;SDS011;2209;48.982;8.406;2023-06-26T03:28:35;8.23;;;7.10;;
4389;SDS011;2209;48.982;8.406;2023-06-26T03:30:57;7.40;;;6.70;;
4389;SDS011;2209;48.982;8.406;2023-06-26T03:33:19;7.40;;;6.43;;
4389;SDS011;2209;48.982;8.406;2023-06-26T03:35:41;7.73;;;7.00;;
4389;SDS011;2209;48.982;8.406;2023-06-26T03:38:03;7.47;;;6.67;;
4389;SDS011;2209;48.982;8.406;2023-06-26T03:40:27;7.63;;;6.43;;
4389;SDS011;2209;48.982;8.406;2023-06-26T03:42:49;8.00;;;7.20;;
4389;SDS011;2209;48.982;8.406;2023-06-26T03:45:11;7.23;;;6.50;;
4389;SDS011;2209;48.982;8.406;2023-06-26T03:47:33;6.47;;;5.80;;
4389;SDS011;2209;48.982;8.406;2023-06-26T03:49:55;9.40;;;6.40;;
4389;SDS011;2209;48.982;8.406;2023-06-26T03:52:17;7.67;;;6.87;;
4389;SDS011;2209;48.982;8.406;2023-06-26T03:54:39;9.80;;;7.63;;
4389;SDS011;2209;48.982;8.406;2023-06-26T03:57:03;7.57;;;6.87;;
4389;SDS011;2209;48.982;8.406;2023-06-26T03:59:25;6.17;;;5.43;;
4389;SDS011;2209;48.982;8.406;2023-06-26T04:01:47;7.83;;;7.03;;
4389;SDS011;2209;48.982;8.406;2023-06-26T04:04:09;6.83;;;6.13;;
4389;SDS011;2209;48.982;8.406;2023-06-26T04:06:32;8.00;;;6.50;;
4389;SDS011;2209;48.982;8.406;2023-06-26T04:08:57;6.87;;;6.20;;
4389;SDS011;2209;48.982;8.406;2023-06-26T04:11:19;8.57;;;7.03;;
4389;SDS011;2209;48.982;8.406;2023-06-26T04:13:42;7.93;;;7.03;;
4389;SDS011;2209;48.982;8.406;2023-06-26T04:16:04;8.83;;;6.47;;
4389;SDS011;2209;48.982;8.406;2023-06-26T04:18:27;9.13;;;7.70;;
4389;SDS011;2209;48.982;8.406;2023-06-26T04:21:05;7.47;;;6.67;;
4389;SDS011;2209;48.982;8.406;2023-06-26T04:23:31;8.07;;;6.40;;
4389;SDS011;2209;48.982;8.406;2023-06-26T04:25:57;6.70;;;6.10;;
4389;SDS011;2209;48.982;8.406;2023-06-26T04:28:19;8.03;;;7.10;;
4389;SDS011;2209;48.982;8.406;2023-06-26T04:30:43;7.43;;;6.63;;
4389;SDS011;2209;48.982;8.406;2023-06-26T04:33:07;10.50;;;6.90;;
4389;SDS011;2209;48.982;8.406;2023-06-26T04:35:32;7.60;;;7.00;;
4389;SDS011;2209;48.982;8.406;2023-06-26T04:37:57;7.50;;;6.67;;
4389;SDS011;2209;48.982;8.406;2023-06-26T04:40:19;10.87;;;5.60;;
4389;SDS011;2209;48.982;8.406;2023-06-26T04:42:41;8.53;;;6.47;;
4389;SDS011;2209;48.982;8.406;2023-06-26T04:45:03;6.43;;;5.40;;
4389;SDS011;2209;48.982;8.406;2023-06-26T04:47:27;9.47;;;6.60;;
4389;SDS011;2209;48.982;8.406;2023-06-26T04:49:49;7.40;;;6.20;;
4389;SDS011;2209;48.982;8.406;2023-06-26T04:52:11;11.90;;;7.07;;
4389;SDS011;2209;48.982;8.406;2023-06-26T04:54:34;7.37;;;6.67;;
4389;SDS011;2209;48.982;8.406;2023-06-26T04:56:56;8.70;;;6.43;;
4389;SDS011;2209;48.982;8.406;2023-06-26T04:59:20;8.43;;;7.33;;
4389;SDS011;2209;48.982;8.406;2023-06-26T05:01:42;7.20;;;6.60;;
4389;SDS011;2209;48.982;8.406;2023-06-26T05:04:09;7.40;;;6.27;;
4389;SDS011;2209;48.982;8.406;2023-06-26T05:06:33;7.07;;;6.07;;
4389;SDS011;2209;48.982;8.406;2023-06-26T05:08:55;10.20;;;6.17;;
4389;SDS011;2209;48.982;8.406;2023-06-26T05:11:17;7.63;;;6.50;;
4389;SDS011;2209;48.982;8.406;2023-06-26T05:13:39;7.77;;;6.97;;
4389;SDS011;2209;48.982;8.406;2023-06-26T05:16:02;8.97;;;7.63;;
4389;SDS011;2209;48.982;8.406;2023-06-26T05:18:24;11.23;;;7.43;;
4389;SDS011;2209;48.982;8.406;2023-06-26T05:20:48;8.57;;;7.17;;
4389;SDS011;2209;48.982;8.406;2023-06-26T05:23:13;9.33;;;7.23;;
4389;SDS011;2209;48.982;8.406;2023-06-26T05:25:38;7.33;;;6.60;;
4389;SDS011;2209;48.982;8.406;2023-06-26T05:28:01;7.60;;;6.80;;
4389;SDS011;2209;48.982;8.406;2023-06-26T05:30:25;8.07;;;7.20;;
4389;SDS011;2209;48.982;8.406;2023-06-26T05:32:48;8.10;;;6.20;;
4389;SDS011;2209;48.982;8.406;2023-06-26T05:35:11;8.90;;;8.00;;
4389;SDS011;2209;48.982;8.406;2023-06-26T05:37:36;10.63;;;8.27;;
4389;SDS011;2209;48.982;8.406;2023-06-26T05:39:58;8.23;;;6.77;;
4389;SDS011;2209;48.982;8.406;2023-06-26T05:42:21;8.50;;;6.80;;
4389;SDS011;2209;48.982;8.406;2023-06-26T05:44:43;8.17;;;7.37;;
4389;SDS011;2209;48.982;8.406;2023-06-26T05:47:05;7.13;;;6.43;;
4389;SDS011;2209;48.982;8.406;2023-06-26T05:49:28;7.33;;;6.10;;
4389;SDS011;2209;48.982;8.406;2023-06-26T05:51:50;8.43;;;6.93;;
4389;SDS011;2209;48.982;8.406;2023-06-26T05:54:14;8.50;;;6.17;;
4389;SDS011;2209;48.982;8.406;2023-06-26T05:56:36;8.50;;;6.83;;
4389;SDS011;2209;48.982;8.406;2023-06-26T05:58:58;8.23;;;6.17;;
4389;SDS011;2209;48.982;8.406;2023-06-26T06:01:22;8.70;;;7.80;;
4389;SDS011;2209;48.982;8.406;2023-06-26T06:03:44;7.83;;;6.77;;
4389;SDS011;2209;48.982;8.406;2023-06-26T06:06:07;8.27;;;7.47;;
4389;SDS011;2209;48.982;8.406;2023-06-26T06:08:29;9.10;;;7.13;;
4389;SDS011;2209;48.982;8.406;2023-06-26T06:10:52;8.13;;;7.17;;
4389;SDS011;2209;48.982;8.406;2023-06-26T06:13:14;7.30;;;6.60;;
4389;SDS011;2209;48.982;8.406;2023-06-26T06:15:36;6.30;;;5.70;;
4389;SDS011;2209;48.982;8.406;2023-06-26T06:17:59;6.20;;;5.60;;
4389;SDS011;2209;48.982;8.406;2023-06-26T06:20:21;7.30;;;6.07;;
4389;SDS011;2209;48.982;8.406;2023-06-26T06:22:43;7.67;;;6.67;;
4389;SDS011;2209;48.982;8.406;2023-06-26T06:25:05;6.90;;;6.30;;
4389;SDS011;2209;48.982;8.406;2023-06-26T06:27:29;8.57;;;6.93;;
4389;SDS011;2209;48.982;8.406;2023-06-26T06:29:51;7.97;;;7.03;;
4389;SDS011;2209;48.982;8.406;2023-06-26T06:32:13;7.50;;;6.80;;
4389;SDS011;2209;48.982;8.406;2023-06-26T06:34:35;7.00;;;6.03;;
4389;SDS011;2209;48.982;8.406;2023-06-26T06:36:57;7.27;;;6.40;;
4389;SDS011;2209;48.982;8.406;2023-06-26T06:39:19;6.17;;;5.60;;
4389;SDS011;2209;48.982;8.406;2023-06-26T06:41:41;9.77;;;6.40;;
4389;SDS011;2209;48.982;8.406;2023-06-26T06:44:05;9.53;;;6.63;;
4389;SDS011;2209;48.982;8.406;2023-06-26T06:46:27;8.63;;;6.40;;
4389;SDS011;2209;48.982;8.406;2023-06-26T06:48:49;8.53;;;6.80;;
4389;SDS011;2209;48.982;8.406;2023-06-26T06:51:11;8.77;;;7.37;;
4389;SDS011;2209;48.982;8.406;2023-06-26T06:53:33;8.30;;;6.63;;
4389;SDS011;2209;48.982;8.406;2023-06-26T06:55:55;6.67;;;6.13;;
4389;SDS011;2209;48.982;8.406;2023-06-26T06:58:17;9.30;;;6.27;;
4389;SDS011;2209;48.982;8.406;2023-06-26T07:00:43;9.53;;;6.57;;
4389;SDS011;2209;48.982;8.406;2023-06-26T07:03:05;11.20;;;7.90;;
4389;SDS011;2209;48.982;8.406;2023-06-26T07:05:27;7.90;;;7.07;;
4389;SDS011;2209;48.982;8.406;2023-06-26T07:07:49;9.23;;;6.80;;
4389;SDS011;2209;48.982;8.406;2023-06-26T07:10:11;7.43;;;6.03;;
4389;SDS011;2209;48.982;8.406;2023-06-26T07:12:35;7.00;;;6.37;;
4389;SDS011;2209;48.982;8.406;2023-06-26T07:14:57;6.90;;;6.20;;
4389;SDS011;2209;48.982;8.406;2023-06-26T07:17:21;7.57;;;6.87;;
4389;SDS011;2209;48.982;8.406;2023-06-26T07:19:43;6.90;;;6.27;;
4389;SDS011;2209;48.982;8.406;2023-06-26T07:22:05;7.50;;;5.73;;
4389;SDS011;2209;48.982;8.406;2023-06-26T07:24:27;7.40;;;6.50;;
4389;SDS011;2209;48.982;8.406;2023-06-26T07:26:49;7.80;;;5.80;;
4389;SDS011;2209;48.982;8.406;2023-06-26T07:29:11;7.73;;;6.33;;
4389;SDS011;2209;48.982;8.406;2023-06-26T07:31:33;7.40;;;6.70;;
4389;SDS011;2209;48.982;8.406;2023-06-26T07:33:56;7.10;;;6.43;;
4389;SDS011;2209;48.982;8.406;2023-06-26T07:36:18;8.30;;;7.10;;
4389;SDS011;2209;48.982;8.406;2023-06-26T07:38:41;6.93;;;6.33;;
4389;SDS011;2209;48.982;8.406;2023-06-26T07:41:03;6.60;;;5.90;;
4389;SDS011;2209;48.982;8.406;2023-06-26T07:43:25;7.93;;;6.03;;
4389;SDS011;2209;48.982;8.406;2023-06-26T07:45:47;6.80;;;5.83;;
4389;SDS011;2209;48.982;8.406;2023-06-26T07:48:11;7.00;;;6.40;;
4389;SDS011;2209;48.982;8.406;2023-06-26T07:50:35;6.57;;;5.40;;
4389;SDS011;2209;48.982;8.406;2023-06-26T07:52:57;6.20;;;5.43;;
4389;SDS011;2209;48.982;8.406;2023-06-26T07:55:19;5.90;;;5.40;;
4389;SDS011;2209;48.982;8.406;2023-06-26T07:57:41;7.30;;;6.60;;
4389;SDS011;2209;48.982;8.406;2023-06-26T08:00:06;5.93;;;5.43;;
4389;SDS011;2209;48.982;8.406;2023-06-26T08:02:29;7.43;;;6.73;;
4389;SDS011;2209;48.982;8.406;2023-06-26T08:04:51;6.20;;;5.40;;
4389;SDS011;2209;48.982;8.406;2023-06-26T08:07:14;6.70;;;6.10;;
4389;SDS011;2209;48.982;8.406;2023-06-26T08:09:36;12.73;;;7.17;;
4389;SDS011;2209;48.982;8.406;2023-06-26T08:11:58;9.40;;;6.17;;
4389;SDS011;2209;48.982;8.406;2023-06-26T08:14:21;6.20;;;5.60;;
4389;SDS011;2209;48.982;8.406;2023-06-26T08:16:43;6.90;;;5.90;;
4389;SDS011;2209;48.982;8.406;2023-06-26T08:19:06;6.27;;;5.67;;
4389;SDS011;2209;48.982;8.406;2023-06-26T08:21:29;6.37;;;5.80;;
4389;SDS011;2209;48.982;8.406;2023-06-26T08:23:52;7.33;;;6.50;;
4389;SDS011;2209;48.982;8.406;2023-06-26T08:26:14;6.73;;;6.20;;
4389;SDS011;2209;48.982;8.406;2023-06-26T08:28:36;7.10;;;6.50;;
4389;SDS011;2209;48.982;8.406;2023-06-26T08:30:58;8.50;;;7.07;;
4389;SDS011;2209;48.982;8.406;2023-06-26T08:33:21;7.70;;;5.70;;
4389;SDS011;2209;48.982;8.406;2023-06-26T08:35:43;6.87;;;6.27;;
4389;SDS011;2209;48.982;8.406;2023-06-26T08:38:05;7.27;;;6.57;;
4389;SDS011;2209;48.982;8.406;2023-06-26T08:40:28;7.80;;;7.10;;
4389;SDS011;2209;48.982;8.406;2023-06-26T08:42:51;10.10;;;6.77;;
4389;SDS011;2209;48.982;8.406;2023-06-26T08:45:14;12.30;;;8.10;;
4389;SDS011;2209;48.982;8.406;2023-06-26T08:47:36;7.53;;;6.83;;
4389;SDS011;2209;48.982;8.406;2023-06-26T08:50:01;7.20;;;6.50;;
4389;SDS011;2209;48.982;8.406;2023-06-26T08:52:30;8.47;;;7.03;;
4389;SDS011;2209;48.982;8.406;2023-06-26T08:54:56;7.97;;;7.23;;
4389;SDS011;2209;48.982;8.406;2023-06-26T08:57:21;8.10;;;6.33;;
4389;SDS011;2209;48.982;8.406;2023-06-26T08:59:45;11.83;;;6.83;;
4389;SDS011;2209;48.982;8.406;2023-06-26T09:02:08;6.43;;;5.83;;
4389;SDS011;2209;48.982;8.406;2023-06-26T09:04:31;8.10;;;7.00;;
4389;SDS011;2209;48.982;8.406;2023-06-26T09:06:53;6.47;;;5.87;;
4389;SDS011;2209;48.982;8.406;2023-06-26T09:09:15;9.10;;;6.97;;
4389;SDS011;2209;48.982;8.406;2023-06-26T09:11:38;7.60;;;6.80;;
4389;SDS011;2209;48.982;8.406;2023-06-26T09:14:01;8.57;;;6.17;;
4389;SDS011;2209;48.982;8.406;2023-06-26T09:16:26;6.73;;;6.10;;
4389;SDS011;2209;48.982;8.406;2023-06-26T09:18:48;6.77;;;6.20;;
4389;SDS011;2209;48.982;8.406;2023-06-26T09:21:12;7.03;;;6.33;;
4389;SDS011;2209;48.982;8.406;2023-06-26T09:23:35;6.40;;;5.90;;
4389;SDS011;2209;48.982;8.406;2023-06-26T09:25:57;7.60;;;6.80;;
4389;SDS011;2209;48.982;8.406;2023-06-26T09:28:19;6.90;;;6.27;;
4389;SDS011;2209;48.982;8.406;2023-06-26T09:30:43;7.40;;;5.70;;
4389;SDS011;2209;48.982;8.406;2023-06-26T09:33:12;7.17;;;6.47;;
4389;SDS011;2209;48.982;8.406;2023-06-26T09:35:35;6.50;;;6.00;;
4389;SDS011;2209;48.982;8.406;2023-06-26T09:37:57;7.43;;;6.80;;
4389;SDS011;2209;48.982;8.406;2023-06-26T09:40:19;8.17;;;6.53;;
4389;SDS011;2209;48.982;8.406;2023-06-26T09:42:42;8.27;;;7.43;;
4389;SDS011;2209;48.982;8.406;2023-06-26T09:45:04;10.10;;;6.87;;
4389;SDS011;2209;48.982;8.406;2023-06-26T09:47:29;8.63;;;6.20;;
4389;SDS011;2209;48.982;8.406;2023-06-26T09:49:52;7.77;;;6.30;;
4389;SDS011;2209;48.982;8.406;2023-06-26T09:52:15;10.67;;;7.73;;
4389;SDS011;2209;48.982;8.406;2023-06-26T09:54:39;7.77;;;5.90;;
4389;SDS011;2209;48.982;8.406;2023-06-26T09:57:07;9.10;;;7.30;;
4389;SDS011;2209;48.982;8.406;2023-06-26T09:59:29;8.70;;;7.20;;
4389;SDS011;2209;48.982;8.406;2023-06-26T10:01:58;7.90;;;6.30;;
4389;SDS011;2209;48.982;8.406;2023-06-26T10:04:22;6.80;;;6.10;;
4389;SDS011;2209;48.982;8.406;2023-06-26T10:06:45;9.20;;;8.10;;
4389;SDS011;2209;48.982;8.406;2023-06-26T10:09:08;9.37;;;7.63;;
4389;SDS011;2209;48.982;8.406;2023-06-26T10:11:32;8.00;;;7.20;;
4389;SDS011;2209;48.982;8.406;2023-06-26T10:13:59;7.50;;;6.80;;
4389;SDS011;2209;48.982;8.406;2023-06-26T10:16:25;7.70;;;6.97;;
4389;SDS011;2209;48.982;8.406;2023-06-26T10:18:50;8.60;;;7.80;;
4389;SDS011;2209;48.982;8.406;2023-06-26T10:21:16;8.90;;;7.20;;
4389;SDS011;2209;48.982;8.406;2023-06-26T10:23:39;8.07;;;7.17;;
4389;SDS011;2209;48.982;8.406;2023-06-26T10:26:05;13.63;;;6.97;;
4389;SDS011;2209;48.982;8.406;2023-06-26T10:28:31;7.70;;;7.00;;
4389;SDS011;2209;48.982;8.406;2023-06-26T10:30:54;6.93;;;6.17;;
4389;SDS011;2209;48.982;8.406;2023-06-26T10:33:17;6.97;;;6.37;;
4389;SDS011;2209;48.982;8.406;2023-06-26T10:35:41;7.07;;;6.40;;
4389;SDS011;2209;48.982;8.406;2023-06-26T10:38:06;8.00;;;7.20;;
4389;SDS011;2209;48.982;8.406;2023-06-26T10:40:28;8.27;;;6.90;;
4389;SDS011;2209;48.982;8.406;2023-06-26T10:43:07;7.40;;;6.60;;
4389;SDS011;2209;48.982;8.406;2023-06-26T10:45:29;9.60;;;7.57;;
4389;SDS011;2209;48.982;8.406;2023-06-26T10:47:54;12.07;;;6.80;;
4389;SDS011;2209;48.982;8.406;2023-06-26T10:50:19;6.90;;;6.20;;
4389;SDS011;2209;48.982;8.406;2023-06-26T10:52:43;8.53;;;6.90;;
4389;SDS011;2209;48.982;8.406;2023-06-26T10:55:08;7.43;;;6.57;;
4389;SDS011;2209;48.982;8.406;2023-06-26T10:57:30;13.13;;;7.70;;
4389;SDS011;2209;48.982;8.406;2023-06-26T11:00:07;6.93;;;6.20;;
4389;SDS011;2209;48.982;8.406;2023-06-26T11:02:35;9.40;;;7.10;;
4389;SDS011;2209;48.982;8.406;2023-06-26T11:05:09;7.00;;;6.30;;
4389;SDS011;2209;48.982;8.406;2023-06-26T11:07:31;6.93;;;6.20;;
4389;SDS011;2209;48.982;8.406;2023-06-26T11:09:53;8.10;;;6.43;;
4389;SDS011;2209;48.982;8.406;2023-06-26T11:12:34;6.07;;;5.57;;
4389;SDS011;2209;48.982;8.406;2023-06-26T11:14:57;7.00;;;6.40;;
4389;SDS011;2209;48.982;8.406;2023-06-26T11:17:22;12.67;;;6.20;;
4389;SDS011;2209;48.982;8.406;2023-06-26T11:19:47;7.60;;;6.90;;
4389;SDS011;2209;48.982;8.406;2023-06-26T11:22:09;7.67;;;5.97;;
4389;SDS011;2209;48.982;8.406;2023-06-26T11:24:32;7.03;;;6.30;;
4389;SDS011;2209;48.982;8.406;2023-06-26T11:26:54;6.70;;;6.10;;
4389;SDS011;2209;48.982;8.406;2023-06-26T11:29:24;6.13;;;5.63;;
4389;SDS011;2209;48.982;8.406;2023-06-26T11:31:46;6.30;;;5.70;;
4389;SDS011;2209;48.982;8.406;2023-06-26T11:34:08;7.83;;;5.60;;
4389;SDS011;2209;48.982;8.406;2023-06-26T11:36:32;6.27;;;5.07;;
4389;SDS011;2209;48.982;8.406;2023-06-26T11:38:58;8.30;;;4.93;;
4389;SDS011;2209;48.982;8.406;2023-06-26T11:41:21;8.17;;;6.27;;
4389;SDS011;2209;48.982;8.406;2023-06-26T11:43:44;7.10;;;5.43;;
4389;SDS011;2209;48.982;8.406;2023-06-26T11:46:07;6.00;;;5.40;;
4389;SDS011;2209;48.982;8.406;2023-06-26T11:48:29;7.23;;;5.70;;
4389;SDS011;2209;48.982;8.406;2023-06-26T11:50:51;5.17;;;4.73;;
4389;SDS011;2209;48.982;8.406;2023-06-26T11:53:14;7.53;;;5.40;;
4389;SDS011;2209;48.982;8.406;2023-06-26T11:55:40;9.27;;;5.00;;
4389;SDS011;2209;48.982;8.406;2023-06-26T11:58:03;5.30;;;4.80;;
4389;SDS011;2209;48.982;8.406;2023-06-26T12:00:25;7.73;;;5.43;;
4389;SDS011;2209;48.982;8.406;2023-06-26T12:02:49;6.20;;;5.43;;
4389;SDS011;2209;48.982;8.406;2023-06-26T12:05:12;6.23;;;4.90;;
4389;SDS011;2209;48.982;8.406;2023-06-26T12:07:35;7.20;;;5.30;;
4389;SDS011;2209;48.982;8.406;2023-06-26T12:09:58;4.97;;;4.50;;
4389;SDS011;2209;48.982;8.406;2023-06-26T12:12:20;5.53;;;5.03;;
4389;SDS011;2209;48.982;8.406;2023-06-26T12:14:43;7.10;;;4.90;;
4389;SDS011;2209;48.982;8.406;2023-06-26T12:17:08;6.37;;;4.80;;
4389;SDS011;2209;48.982;8.406;2023-06-26T12:19:33;6.90;;;4.70;;
4389;SDS011;2209;48.982;8.406;2023-06-26T12:21:55;9.77;;;4.20;;
4389;SDS011;2209;48.982;8.406;2023-06-26T12:24:18;4.10;;;3.70;;
4389;SDS011;2209;48.982;8.406;2023-06-26T12:26:42;5.67;;;4.60;;
4389;SDS011;2209;48.982;8.406;2023-06-26T12:29:05;5.43;;;4.37;;
4389;SDS011;2209;48.982;8.406;2023-06-26T12:31:28;4.40;;;4.00;;
4389;SDS011;2209;48.982;8.406;2023-06-26T12:33:51;4.03;;;3.67;;
4389;SDS011;2209;48.982;8.406;2023-06-26T12:36:15;4.13;;;3.83;;
4389;SDS011;2209;48.982;8.406;2023-06-26T12:38:37;5.93;;;3.70;;
4389;SDS011;2209;48.982;8.406;2023-06-26T12:40:59;4.27;;;3.83;;
4389;SDS011;2209;48.982;8.406;2023-06-26T12:43:25;4.50;;;3.40;;
4389;SDS011;2209;48.982;8.406;2023-06-26T12:45:48;5.97;;;3.20;;
4389;SDS011;2209;48.982;8.406;2023-06-26T12:48:10;4.03;;;3.73;;
4389;SDS011;2209;48.982;8.406;2023-06-26T12:50:36;4.23;;;3.53;;
4389;SDS011;2209;48.982;8.406;2023-06-26T12:53:00;3.30;;;3.10;;
4389;SDS011;2209;48.982;8.406;2023-06-26T12:55:22;3.40;;;3.10;;
4389;SDS011;2209;48.982;8.406;2023-06-26T12:57:44;4.40;;;3.60;;
4389;SDS011;2209;48.982;8.406;2023-06-26T13:00:07;3.60;;;3.40;;
4389;SDS011;2209;48.982;8.406;2023-06-26T13:02:30;5.13;;;3.87;;
4389;SDS011;2209;48.982;8.406;2023-06-26T13:04:52;6.17;;;4.30;;
4389;SDS011;2209;48.982;8.406;2023-06-26T13:07:14;4.50;;;3.30;;
4389;SDS011;2209;48.982;8.406;2023-06-26T13:09:38;6.00;;;3.30;;
4389;SDS011;2209;48.982;8.406;2023-06-26T13:12:01;4.47;;;4.07;;
4389;SDS011;2209;48.982;8.406;2023-06-26T13:14:24;4.00;;;3.33;;
4389;SDS011;2209;48.982;8.406;2023-06-26T13:16:46;5.33;;;4.13;;
4389;SDS011;2209;48.982;8.406;2023-06-26T13:19:08;3.80;;;3.50;;
4389;SDS011;2209;48.982;8.406;2023-06-26T13:21:30;4.40;;;4.00;;
4389;SDS011;2209;48.982;8.406;2023-06-26T13:23:53;7.57;;;3.77;;
4389;SDS011;2209;48.982;8.406;2023-06-26T13:26:17;4.70;;;4.07;;
4389;SDS011;2209;48.982;8.406;2023-06-26T13:28:40;4.73;;;3.47;;
4389;SDS011;2209;48.982;8.406;2023-06-26T13:31:02;7.20;;;4.03;;
4389;SDS011;2209;48.982;8.406;2023-06-26T13:33:24;4.17;;;3.87;;
4389;SDS011;2209;48.982;8.406;2023-06-26T13:35:46;5.07;;;4.53;;
4389;SDS011;2209;48.982;8.406;2023-06-26T13:38:08;5.03;;;4.43;;
4389;SDS011;2209;48.982;8.406;2023-06-26T13:40:30;6.47;;;5.20;;
4389;SDS011;2209;48.982;8.406;2023-06-26T13:42:54;8.03;;;5.70;;
4389;SDS011;2209;48.982;8.406;2023-06-26T13:45:16;6.07;;;5.57;;
4389;SDS011;2209;48.982;8.406;2023-06-26T13:47:38;6.87;;;5.50;;
4389;SDS011;2209;48.982;8.406;2023-06-26T13:50:01;5.73;;;4.80;;
4389;SDS011;2209;48.982;8.406;2023-06-26T13:52:23;6.77;;;4.87;;
4389;SDS011;2209;48.982;8.406;2023-06-26T13:54:45;6.87;;;5.33;;
4389;SDS011;2209;48.982;8.406;2023-06-26T13:57:07;7.07;;;5.50;;
4389;SDS011;2209;48.982;8.406;2023-06-26T13:59:31;8.33;;;5.73;;
4389;SDS011;2209;48.982;8.406;2023-06-26T14:01:53;8.57;;;5.63;;
4389;SDS011;2209;48.982;8.406;2023-06-26T14:04:15;6.77;;;5.60;;
4389;SDS011;2209;48.982;8.406;2023-06-26T14:06:37;6.70;;;6.00;;
4389;SDS011;2209;48.982;8.406;2023-06-26T14:08:59;8.17;;;5.73;;
4389;SDS011;2209;48.982;8.406;2023-06-26T14:11:22;6.80;;;5.20;;
4389;SDS011;2209;48.982;8.406;2023-06-26T14:13:45;6.80;;;6.10;;
4389;SDS011;2209;48.982;8.406;2023-06-26T14:16:09;12.00;;;5.80;;
4389;SDS011;2209;48.982;8.406;2023-06-26T14:18:31;7.90;;;6.27;;
4389;SDS011;2209;48.982;8.406;2023-06-26T14:20:53;8.77;;;6.40;;
4389;SDS011;2209;48.982;8.406;2023-06-26T14:23:15;5.80;;;5.20;;
4389;SDS011;2209;48.982;8.406;2023-06-26T14:25:37;8.30;;;5.60;;
4389;SDS011;2209;48.982;8.406;2023-06-26T14:27:59;6.87;;;5.97;;
4389;SDS011;2209;48.982;8.406;2023-06-26T14:30:21;9.27;;;5.73;;
4389;SDS011;2209;48.982;8.406;2023-06-26T14:32:45;7.47;;;5.83;;
4389;SDS011;2209;48.982;8.406;2023-06-26T14:35:07;6.07;;;5.57;;
4389;SDS011;2209;48.982;8.406;2023-06-26T14:37:29;10.37;;;6.07;;
4389;SDS011;2209;48.982;8.406;2023-06-26T14:39:52;6.90;;;5.50;;
4389;SDS011;2209;48.982;8.406;2023-06-26T14:42:14;5.67;;;5.17;;
4389;SDS011;2209;48.982;8.406;2023-06-26T14:44:36;13.10;;;6.20;;
4389;SDS011;2209;48.982;8.406;2023-06-26T14:46:58;6.70;;;5.83;;
4389;SDS011;2209;48.982;8.406;2023-06-26T14:49:21;7.50;;;5.07;;
4389;SDS011;2209;48.982;8.406;2023-06-26T14:51:43;5.57;;;4.90;;
4389;SDS011;2209;48.982;8.406;2023-06-26T14:54:05;6.23;;;4.87;;